Time;durP1;ratioP1;P1;durP2;ratioP2;P2;SDS_P1;SDS_P2;PMS_P1;PMS_P2;Temp;Humidity;BMP_temperature;BMP_pressure;BME280_temperature;BME280_humidity;BME280_pressure;Samples;Min_cycle;Max_cycle;Signal;HPM_P1;HPM_P2
2023/04/06 00:00:49;;;;;;;21.73;13.70;;;;;;;2.11;66.91;99229.13;5036553;28;20061;-90
2023/04/06 00:03:15;;;;;;;19.27;14.23;;;;;;;2.27;66.63;99212.50;5036727;28;20086;-88
2023/04/06 00:05:41;;;;;;;21.60;13.73;;;;;;;2.31;66.18;99210.81;5053360;28;20029;-88
2023/04/06 00:08:07;;;;;;;19.15;13.88;;;;;;;2.12;66.91;99228.06;5036355;28;20021;-88
2023/04/06 00:10:32;;;;;;;17.58;12.93;;;;;;;2.10;67.00;99210.94;5035644;28;20573;-87
2023/04/06 00:12:59;;;;;;;18.50;13.80;;;;;;;2.21;66.11;99195.16;5036323;28;20024;-88
2023/04/06 00:15:25;;;;;;;20.02;13.23;;;;;;;2.29;66.60;99213.03;5035860;28;20451;-88
2023/04/06 00:17:51;;;;;;;22.98;13.77;;;;;;;2.31;66.45;99221.84;5036508;28;20490;-88
2023/04/06 00:20:17;;;;;;;19.73;13.20;;;;;;;2.04;66.80;99192.78;5036662;28;20150;-88
2023/04/06 00:22:43;;;;;;;19.23;13.20;;;;;;;2.21;67.09;99201.47;5053339;28;20029;-90
2023/04/06 00:25:12;;;;;;;20.17;13.85;;;;;;;2.25;66.80;99210.03;5035616;28;20029;-87
2023/04/06 00:27:38;;;;;;;21.02;13.82;;;;;;;2.15;67.05;99204.56;5032977;28;20508;-90
2023/04/06 00:30:05;;;;;;;19.08;13.60;;;;;;;2.04;67.98;99201.03;5027792;28;20025;-87
2023/04/06 00:32:31;;;;;;;18.90;13.15;;;;;;;2.02;67.11;99203.28;5035030;28;20028;-89
2023/04/06 00:34:56;;;;;;;18.95;13.13;;;;;;;2.09;66.54;99192.72;5063193;28;20049;-88
2023/04/06 00:37:22;;;;;;;18.80;12.40;;;;;;;2.15;66.19;99193.53;5035970;28;20025;-88
2023/04/06 00:39:48;;;;;;;16.33;11.65;;;;;;;2.11;65.73;99190.50;5029600;28;20099;-88
2023/04/06 00:42:14;;;;;;;18.88;11.93;;;;;;;2.20;66.23;99204.53;5016314;28;20025;-87
2023/04/06 00:44:43;;;;;;;16.30;11.93;;;;;;;2.13;65.88;99193.81;5031753;28;20431;-88
2023/04/06 00:47:08;;;;;;;18.77;13.15;;;;;;;2.10;66.71;99183.34;5035959;28;20029;-89
2023/04/06 00:49:34;;;;;;;19.02;12.68;;;;;;;2.07;66.04;99179.25;5034760;28;20025;-87
2023/04/06 00:52:01;;;;;;;19.70;13.23;;;;;;;2.10;66.34;99188.84;5035932;28;20052;-87
2023/04/06 00:54:27;;;;;;;20.23;13.65;;;;;;;2.03;66.53;99167.09;5036057;28;20094;-88
2023/04/06 00:56:52;;;;;;;18.40;12.98;;;;;;;2.34;65.99;99188.16;5053326;28;20020;-88
2023/04/06 00:59:18;;;;;;;19.77;14.32;;;;;;;2.19;66.16;99180.81;5052278;28;20031;-88
2023/04/06 01:01:44;;;;;;;20.38;14.00;;;;;;;1.90;66.86;99145.66;5035750;28;20017;-89
2023/04/06 01:04:10;;;;;;;18.17;13.35;;;;;;;2.11;67.01;99171.19;5035732;28;20035;-87
2023/04/06 01:06:35;;;;;;;20.73;13.90;;;;;;;2.24;67.14;99170.56;5032977;28;20491;-89
2023/04/06 01:09:01;;;;;;;19.50;13.35;;;;;;;2.27;67.46;99173.88;5035521;28;20032;-87
2023/04/06 01:11:26;;;;;;;17.00;12.52;;;;;;;2.19;66.58;99155.97;5035603;28;20111;-88
2023/04/06 01:13:53;;;;;;;20.58;12.93;;;;;;;2.30;67.02;99173.28;5051425;28;20507;-87
2023/04/06 01:16:18;;;;;;;19.20;13.70;;;;;;;2.34;66.16;99164.16;5035186;28;20025;-87
2023/04/06 01:18:44;;;;;;;23.67;15.30;;;;;;;2.07;66.75;99143.38;5035334;28;20017;-87
2023/04/06 01:21:15;;;;;;;31.15;18.25;;;;;;;2.10;67.56;99156.59;5035310;28;20474;-87
2023/04/06 01:23:43;;;;;;;31.23;18.98;;;;;;;1.94;68.11;99149.53;5047721;28;20104;-87
2023/04/06 01:26:09;;;;;;;22.05;15.48;;;;;;;2.04;68.06;99152.19;5034846;28;20025;-90
2023/04/06 01:28:35;;;;;;;22.63;15.05;;;;;;;2.05;68.08;99158.56;5034283;28;20024;-87
2023/04/06 01:31:00;;;;;;;21.15;13.43;;;;;;;2.11;67.78;99157.38;5034904;28;20510;-88
2023/04/06 01:33:25;;;;;;;20.45;13.93;;;;;;;2.17;67.43;99147.13;5051677;28;20033;-89
2023/04/06 01:35:51;;;;;;;21.30;14.40;;;;;;;2.12;67.13;99148.03;5035078;28;20055;-88
2023/04/06 01:38:17;;;;;;;22.23;14.13;;;;;;;1.99;67.44;99143.13;5034699;28;20645;-88
2023/04/06 01:40:42;;;;;;;19.63;14.05;;;;;;;1.99;67.62;99143.13;5052607;28;20086;-88
2023/04/06 01:43:08;;;;;;;21.45;14.60;;;;;;;2.02;67.79;99142.56;5031544;28;20031;-87
2023/04/06 01:45:33;;;;;;;20.00;13.05;;;;;;;1.97;66.77;99135.16;5034435;28;20029;-89
2023/04/06 01:47:59;;;;;;;23.65;14.40;;;;;;;1.77;67.59;99125.88;5052652;28;20029;-88
2023/04/06 01:50:24;;;;;;;20.48;14.43;;;;;;;1.66;68.04;99124.28;5034718;28;20024;-88
2023/04/06 01:52:50;;;;;;;22.25;14.50;;;;;;;1.86;67.77;99139.09;5034574;28;20111;-89
2023/04/06 01:55:15;;;;;;;21.10;14.50;;;;;;;1.73;67.77;99123.97;5034520;28;20020;-89
2023/04/06 01:57:41;;;;;;;23.83;14.88;;;;;;;1.48;68.27;99100.94;5051932;28;20032;-87
2023/04/06 02:00:07;;;;;;;21.90;15.18;;;;;;;1.35;68.78;99096.91;5033767;28;20021;-88
2023/04/06 02:02:32;;;;;;;24.80;16.02;;;;;;;1.46;69.17;99126.06;5051320;28;20025;-89
2023/04/06 02:04:58;;;;;;;25.85;15.90;;;;;;;1.38;69.59;99105.41;5052339;28;20052;-87
2023/04/06 02:07:24;;;;;;;24.42;15.35;;;;;;;1.56;69.26;99127.94;5034583;28;20056;-88
2023/04/06 02:09:53;;;;;;;24.20;15.77;;;;;;;1.25;70.18;99111.53;5034275;28;20049;-89
2023/04/06 02:12:19;;;;;;;20.02;14.20;;;;;;;1.23;70.61;99117.34;5034361;28;20673;-88
2023/04/06 02:14:44;;;;;;;25.52;16.75;;;;;;;1.21;70.92;99115.97;5033997;28;20036;-87
2023/04/06 02:17:10;;;;;;;25.73;14.93;;;;;;;1.20;70.57;99126.16;5032677;28;20029;-88
2023/04/06 02:19:36;;;;;;;22.63;15.27;;;;;;;1.08;70.72;99109.94;5052143;28;20100;-90
2023/04/06 02:22:01;;;;;;;23.63;14.45;;;;;;;1.43;69.62;99106.50;5033354;28;20495;-88
2023/04/06 02:24:27;;;;;;;20.95;13.35;;;;;;;1.35;69.62;99119.75;5052079;28;20522;-89
2023/04/06 02:26:52;;;;;;;21.23;14.45;;;;;;;1.40;69.30;99117.00;5051197;28;20028;-88
2023/04/06 02:29:18;;;;;;;19.35;13.88;;;;;;;1.46;69.10;99126.06;5034047;28;20032;-89
2023/04/06 02:31:43;;;;;;;21.67;14.52;;;;;;;1.47;68.43;99127.72;5033574;28;20025;-88
2023/04/06 02:34:11;;;;;;;20.02;13.30;;;;;;;1.42;68.75;99122.19;5050366;28;20166;-87
2023/04/06 02:36:37;;;;;;;21.95;14.25;;;;;;;1.56;68.17;99138.13;5034080;28;20032;-87
2023/04/06 02:39:03;;;;;;;20.33;14.07;;;;;;;1.37;68.67;99138.78;5033955;28;20021;-88
2023/04/06 02:41:28;;;;;;;20.35;13.95;;;;;;;1.52;68.83;99141.47;5033699;28;20021;-88
2023/04/06 02:43:54;;;;;;;22.65;14.52;;;;;;;1.35;69.06;99136.28;5034003;28;20112;-87
2023/04/06 02:46:19;;;;;;;21.02;14.18;;;;;;;1.22;69.42;99123.13;5033256;28;20078;-88
2023/04/06 02:48:45;;;;;;;22.92;14.02;;;;;;;1.22;69.46;99143.25;5033816;28;20024;-89
2023/04/06 02:51:10;;;;;;;19.35;13.38;;;;;;;1.23;69.69;99141.28;5032858;28;20107;-87
2023/04/06 02:53:36;;;;;;;19.02;13.55;;;;;;;1.45;69.14;99123.56;5033813;28;20028;-88
2023/04/06 02:56:03;;;;;;;21.35;15.23;;;;;;;1.40;68.71;99122.50;5033564;28;20025;-89
2023/04/06 02:58:29;;;;;;;25.20;16.15;;;;;;;1.24;69.75;99134.69;5051414;28;20484;-89
2023/04/06 03:00:54;;;;;;;30.52;17.88;;;;;;;1.29;70.05;99131.09;5033285;28;20460;-87
2023/04/06 03:03:21;;;;;;;27.42;18.05;;;;;;;1.12;70.01;99126.75;5051599;28;20155;-87
2023/04/06 03:05:47;;;;;;;27.73;19.23;;;;;;;1.25;70.80;99128.06;5033801;28;20482;-88
2023/04/06 03:08:12;;;;;;;36.33;20.10;;;;;;;1.17;70.56;99123.97;5034085;28;20021;-89
2023/04/06 03:10:38;;;;;;;36.45;21.10;;;;;;;1.14;71.13;99134.72;5036973;28;20028;-88
2023/04/06 03:13:03;;;;;;;34.85;21.30;;;;;;;0.98;71.57;99123.75;5037763;28;20095;-89
2023/04/06 03:15:29;;;;;;;36.40;20.50;;;;;;;1.01;71.56;99131.44;5037861;28;20056;-90
2023/04/06 03:17:54;;;;;;;25.52;18.17;;;;;;;1.06;71.80;99141.63;5037407;28;20029;-88
2023/04/06 03:20:20;;;;;;;32.85;18.60;;;;;;;1.11;71.32;99131.41;5036538;28;20495;-86
2023/04/06 03:22:45;;;;;;;27.70;18.15;;;;;;;1.07;71.01;99124.00;5037371;28;20056;-89
2023/04/06 03:25:11;;;;;;;26.73;17.50;;;;;;;1.12;71.30;99135.00;5054469;28;20036;-88
2023/04/06 03:27:36;;;;;;;29.00;19.30;;;;;;;1.15;71.20;99130.84;5054947;28;20028;-87
2023/04/06 03:30:02;;;;;;;45.65;21.85;;;;;;;1.21;70.94;99129.75;5036661;28;20048;-88
2023/04/06 03:32:28;;;;;;;34.72;18.60;;;;;;;1.20;70.54;99128.91;5055167;28;20028;-88
2023/04/06 03:34:53;;;;;;;25.35;14.93;;;;;;;1.25;70.31;99123.38;5036864;28;20049;-88
2023/04/06 03:37:19;;;;;;;26.73;16.42;;;;;;;1.29;70.48;99136.59;5035757;28;20043;-88
2023/04/06 03:39:45;;;;;;;23.92;14.48;;;;;;;1.32;70.21;99136.84;5054607;28;20025;-88
2023/04/06 03:42:10;;;;;;;19.55;14.57;;;;;;;1.31;70.65;99135.22;5036699;28;20028;-88
2023/04/06 03:44:36;;;;;;;24.65;14.38;;;;;;;1.12;70.56;99107.47;5037181;28;20067;-87
2023/04/06 03:47:02;;;;;;;22.42;14.05;;;;;;;1.33;70.69;99134.94;5037055;28;20021;-89
2023/04/06 03:49:27;;;;;;;20.33;13.57;;;;;;;1.40;70.27;99149.22;5037179;28;20408;-89
2023/04/06 03:51:53;;;;;;;27.33;15.57;;;;;;;1.37;70.18;99130.50;5036595;28;20060;-89
2023/04/06 03:54:19;;;;;;;20.85;14.02;;;;;;;1.59;69.83;99138.38;5036335;28;20020;-88
2023/04/06 03:56:44;;;;;;;21.15;13.10;;;;;;;1.57;69.41;99131.50;5036721;28;20094;-88
2023/04/06 03:59:10;;;;;;;21.38;14.27;;;;;;;1.63;69.44;99141.41;5036864;28;20056;-88
2023/04/06 04:01:35;;;;;;;26.38;15.25;;;;;;;1.52;69.52;99130.44;5036465;28;20119;-88
2023/04/06 04:04:01;;;;;;;20.50;14.23;;;;;;;1.67;69.54;99145.25;5037113;28;20488;-87
2023/04/06 04:06:29;;;;;;;24.52;16.08;;;;;;;1.67;69.08;99134.22;5036703;28;20404;-87
2023/04/06 04:08:55;;;;;;;27.23;15.20;;;;;;;1.79;69.18;99142.97;5026462;28;20109;-87
2023/04/06 04:11:21;;;;;;;36.95;19.13;;;;;;;1.54;69.22;99122.69;5027349;28;20163;-87
2023/04/06 04:13:46;;;;;;;38.13;20.83;;;;;;;1.67;69.68;99156.28;5035210;28;20040;-87
2023/04/06 04:16:12;;;;;;;31.27;17.08;;;;;;;1.69;68.95;99151.31;5033254;28;20033;-87
2023/04/06 04:18:37;;;;;;;29.77;18.25;;;;;;;1.87;69.29;99151.75;5023870;28;20030;-90
2023/04/06 04:21:03;;;;;;;23.75;13.93;;;;;;;1.98;67.65;99153.34;5028039;28;20040;-87
2023/04/06 04:23:29;;;;;;;22.30;14.90;;;;;;;1.86;67.83;99139.09;5036232;28;20028;-91
2023/04/06 04:25:54;;;;;;;24.23;15.02;;;;;;;1.89;67.88;99141.25;5035953;28;20028;-88
2023/04/06 04:28:20;;;;;;;23.80;15.45;;;;;;;1.88;67.61;99145.13;5036303;28;20021;-89
2023/04/06 04:30:46;;;;;;;24.10;15.40;;;;;;;1.82;67.78;99145.19;5036076;28;20033;-89
2023/04/06 04:33:11;;;;;;;23.83;15.50;;;;;;;2.00;67.82;99153.06;5052963;28;20017;-87
2023/04/06 04:35:37;;;;;;;24.17;15.25;;;;;;;1.94;67.86;99139.31;5035763;28;20056;-88
2023/04/06 04:38:02;;;;;;;22.40;14.02;;;;;;;1.98;67.46;99136.81;5035565;28;20522;-88
2023/04/06 04:40:28;;;;;;;26.67;14.43;;;;;;;1.92;67.83;99152.56;5035929;28;20040;-87
2023/04/06 04:42:53;;;;;;;28.58;16.40;;;;;;;1.99;68.10;99154.16;5036239;28;20029;-89
2023/04/06 04:45:19;;;;;;;26.65;14.90;;;;;;;2.19;66.86;99156.78;5036040;28;20032;-87
2023/04/06 04:47:44;;;;;;;23.75;14.68;;;;;;;2.05;66.93;99142.00;5035646;28;20462;-87
2023/04/06 04:50:10;;;;;;;23.65;14.20;;;;;;;2.08;66.80;99150.53;5035472;28;20025;-87
2023/04/06 04:52:37;;;;;;;22.15;15.20;;;;;;;2.10;66.71;99141.94;5032678;28;20059;-89
2023/04/06 04:55:03;;;;;;;30.55;15.50;;;;;;;2.17;66.66;99158.19;5042516;28;20022;-87
2023/04/06 04:57:29;;;;;;;21.35;13.00;;;;;;;2.23;65.79;99143.25;5016279;28;20117;-88
2023/04/06 04:59:54;;;;;;;23.17;13.70;;;;;;;2.24;65.82;99148.50;5032367;28;20029;-88
2023/04/06 05:02:20;;;;;;;22.00;14.45;;;;;;;2.42;66.05;99153.59;5028553;28;20048;-88
2023/04/06 05:04:45;;;;;;;19.45;12.57;;;;;;;2.19;65.88;99123.69;5053379;28;20492;-87
2023/04/06 05:07:11;;;;;;;18.13;11.80;;;;;;;2.38;64.99;99151.41;5034354;28;20508;-88
2023/04/06 05:09:37;;;;;;;22.77;14.02;;;;;;;2.22;65.73;99120.34;5035449;28;20032;-88
2023/04/06 05:12:02;;;;;;;21.98;13.30;;;;;;;2.48;65.67;99149.69;5035835;28;20083;-89
2023/04/06 05:14:28;;;;;;;18.63;12.98;;;;;;;2.50;65.17;99148.28;5048907;28;20029;-88
2023/04/06 05:16:54;;;;;;;17.02;12.27;;;;;;;2.65;65.02;99143.72;5042773;28;20025;-90
2023/04/06 05:19:20;;;;;;;19.73;12.68;;;;;;;2.75;65.00;99137.28;5030967;28;20028;-89
2023/04/06 05:21:45;;;;;;;18.63;11.88;;;;;;;2.73;65.39;99148.63;5033042;28;20029;-87
2023/04/06 05:24:11;;;;;;;20.83;12.85;;;;;;;2.72;64.81;99140.63;5031510;28;20408;-88
2023/04/06 05:26:36;;;;;;;24.85;13.57;;;;;;;2.65;65.04;99139.06;5032834;28;20410;-88
2023/04/06 05:29:05;;;;;;;27.23;12.82;;;;;;;2.78;64.63;99145.00;5032180;28;20120;-87
2023/04/06 05:31:31;;;;;;;22.25;12.55;;;;;;;2.86;64.88;99130.53;5032126;28;20028;-89
2023/04/06 05:33:57;;;;;;;24.98;14.73;;;;;;;2.85;64.86;99131.66;5031793;28;20131;-89
2023/04/06 05:36:22;;;;;;;31.73;17.60;;;;;;;2.89;65.36;99127.19;5030531;28;20033;-87
2023/04/06 05:38:50;;;;;;;23.67;14.35;;;;;;;2.71;66.08;99114.13;5048955;28;20053;-89
2023/04/06 05:41:15;;;;;;;26.23;16.70;;;;;;;2.80;65.59;99127.00;5047002;28;20593;-89
2023/04/06 05:43:41;;;;;;;26.73;17.50;;;;;;;2.87;66.13;99125.84;5046155;28;20032;-87
2023/04/06 05:46:07;;;;;;;26.90;16.33;;;;;;;3.02;65.79;99122.13;5029027;28;20035;-88
2023/04/06 05:48:33;;;;;;;26.40;16.95;;;;;;;3.31;65.18;99129.50;5032435;28;20052;-88
2023/04/06 05:50:59;;;;;;;26.83;17.20;;;;;;;3.33;64.34;99119.81;5028828;28;20033;-89
2023/04/06 05:53:26;;;;;;;25.48;15.73;;;;;;;3.28;63.96;99119.06;5028205;28;20190;-88
2023/04/06 05:55:51;;;;;;;24.92;15.43;;;;;;;3.32;63.77;99118.16;5027907;28;20037;-87
2023/04/06 05:58:17;;;;;;;23.83;15.27;;;;;;;3.34;63.30;99120.63;5028508;28;20047;-87
2023/04/06 06:00:43;;;;;;;22.27;14.18;;;;;;;3.49;62.72;99120.41;5033441;28;20033;-88
2023/04/06 06:03:09;;;;;;;33.30;15.73;;;;;;;3.60;62.68;99117.53;5031135;28;20031;-88
2023/04/06 06:05:34;;;;;;;22.02;13.13;;;;;;;3.76;61.97;99110.69;5029862;28;20076;-87
2023/04/06 06:08:01;;;;;;;22.85;13.45;;;;;;;4.29;59.72;99121.81;5025954;28;20439;-86
2023/04/06 06:10:27;;;;;;;21.10;15.27;;;;;;;4.48;58.74;99124.53;5030438;28;20533;-85
2023/04/06 06:12:53;;;;;;;16.75;11.50;;;;;;;4.54;59.12;99111.41;5030375;28;20119;-86
2023/04/06 06:15:18;;;;;;;13.40;10.52;;;;;;;4.86;57.07;99096.72;5045457;28;20037;-86
2023/04/06 06:17:44;;;;;;;13.88;10.13;;;;;;;4.90;56.20;99096.91;5040458;28;20047;-85
2023/04/06 06:20:10;;;;;;;18.48;10.13;;;;;;;4.64;57.05;99087.13;5029917;28;20060;-85
2023/04/06 06:22:36;;;;;;;14.50;10.27;;;;;;;4.55;58.42;99102.78;5045795;28;20513;-86
2023/04/06 06:25:03;;;;;;;15.45;11.20;;;;;;;4.81;57.62;99091.25;5029554;28;20024;-86
2023/04/06 06:27:28;;;;;;;16.52;11.25;;;;;;;4.66;57.30;99092.38;5029043;28;20075;-87
2023/04/06 06:29:54;;;;;;;15.15;11.10;;;;;;;4.55;57.37;99086.16;5029543;28;20076;-86
2023/04/06 06:32:20;;;;;;;17.98;13.05;;;;;;;4.81;58.08;99088.47;5030591;28;20033;-87
2023/04/06 06:34:45;;;;;;;16.85;12.50;;;;;;;4.86;57.11;99080.06;5029065;28;20107;-87
2023/04/06 06:37:11;;;;;;;20.05;11.02;;;;;;;5.14;57.58;99085.63;5030345;28;20041;-87
2023/04/06 06:39:36;;;;;;;17.25;11.90;;;;;;;5.05;56.65;99063.34;5030777;28;20108;-85
2023/04/06 06:42:05;;;;;;;20.10;13.27;;;;;;;5.55;55.75;99088.66;5029198;28;20116;-86
2023/04/06 06:44:31;;;;;;;16.52;11.30;;;;;;;5.26;55.70;99075.97;5033160;28;20385;-86
2023/04/06 06:46:56;;;;;;;14.40;10.98;;;;;;;5.44;56.15;99069.50;5033319;28;20059;-85
2023/04/06 06:49:22;;;;;;;13.02;10.27;;;;;;;5.56;55.90;99071.72;5032799;28;20032;-86
2023/04/06 06:51:47;;;;;;;16.92;10.32;;;;;;;5.93;54.68;99066.19;5031933;28;20032;-86
2023/04/06 06:54:13;;;;;;;16.30;10.68;;;;;;;5.44;56.44;99060.34;5033020;28;20091;-86
2023/04/06 06:56:39;;;;;;;19.77;13.18;;;;;;;5.85;55.05;99064.97;5033246;28;20025;-85
2023/04/06 06:59:05;;;;;;;22.02;11.45;;;;;;;6.05;54.07;99082.31;5033175;28;20036;-85
2023/04/06 07:01:34;;;;;;;16.83;11.05;;;;;;;6.19;53.95;99090.59;5031717;28;20033;-85
2023/04/06 07:03:59;;;;;;;16.40;11.60;;;;;;;5.96;55.37;99065.56;5013521;28;20021;-85
2023/04/06 07:06:25;;;;;;;15.48;10.57;;;;;;;6.06;54.50;99091.47;5030515;28;20031;-86
2023/04/06 07:08:50;;;;;;;14.68;10.75;;;;;;;6.34;54.18;99094.13;5032243;28;20028;-86
2023/04/06 07:11:16;;;;;;;15.23;10.02;;;;;;;6.22;53.91;99084.41;5048497;28;20041;-85
2023/04/06 07:13:42;;;;;;;16.17;11.57;;;;;;;6.47;53.98;99084.91;5050424;28;20116;-86
2023/04/06 07:16:08;;;;;;;15.68;10.63;;;;;;;6.55;53.81;99081.34;5033037;28;20032;-85
2023/04/06 07:18:33;;;;;;;15.98;11.70;;;;;;;6.23;53.99;99080.47;5029915;28;20033;-87
2023/04/06 07:20:59;;;;;;;18.83;11.43;;;;;;;6.23;55.35;99082.44;5024913;28;20072;-87
2023/04/06 07:23:25;;;;;;;13.30;10.30;;;;;;;6.09;53.95;99079.72;5032538;28;20040;-87
2023/04/06 07:25:52;;;;;;;15.05;10.43;;;;;;;6.30;55.10;99072.53;5033027;28;20503;-86
2023/04/06 07:28:17;;;;;;;14.40;9.95;;;;;;;6.82;53.33;99060.06;5032553;28;20025;-85
2023/04/06 07:30:43;;;;;;;16.10;10.40;;;;;;;6.42;54.14;99068.38;5031831;28;20045;-90
2023/04/06 07:33:08;;;;;;;14.00;10.52;;;;;;;6.46;55.99;99067.41;5050869;28;20028;-90
2023/04/06 07:35:34;;;;;;;11.73;9.70;;;;;;;6.95;54.32;99071.41;5027267;28;20045;-86
2023/04/06 07:38:00;;;;;;;14.85;10.80;;;;;;;7.22;52.26;99075.94;5028218;28;20415;-85
2023/04/06 07:40:26;;;;;;;15.50;9.85;;;;;;;6.90;52.49;99069.59;5027607;28;20021;-88
2023/04/06 07:42:52;;;;;;;20.25;11.70;;;;;;;7.24;52.95;99059.75;5028650;28;20249;-87
2023/04/06 07:45:18;;;;;;;15.32;10.55;;;;;;;7.72;53.21;99071.13;5028833;28;20021;-86
2023/04/06 07:47:43;;;;;;;14.82;10.55;;;;;;;7.90;51.58;99065.56;5028237;28;20036;-86
2023/04/06 07:50:10;;;;;;;16.67;10.60;;;;;;;7.94;51.16;99059.03;5028244;28;20041;-86
2023/04/06 07:52:35;;;;;;;11.65;8.70;;;;;;;8.10;49.89;99061.34;5028916;28;20116;-85
2023/04/06 07:55:01;;;;;;;12.25;8.63;;;;;;;7.85;52.21;99074.94;5032376;28;20094;-86
2023/04/06 07:57:27;;;;;;;12.77;9.88;;;;;;;8.16;50.07;99073.94;5034174;28;20071;-86
2023/04/06 07:59:52;;;;;;;15.15;9.27;;;;;;;8.27;49.59;99058.53;5032531;28;20064;-84
2023/04/06 08:02:18;;;;;;;13.65;9.38;;;;;;;8.13;49.41;99057.88;5033914;28;20032;-85
2023/04/06 08:04:44;;;;;;;12.05;8.40;;;;;;;8.22;50.35;99055.09;5033722;28;20033;-84
2023/04/06 08:07:09;;;;;;;13.88;8.48;;;;;;;8.11;50.46;99058.19;5034336;28;20546;-86
2023/04/06 08:09:35;;;;;;;16.63;9.38;;;;;;;8.27;50.77;99041.00;5031968;28;20025;-84
2023/04/06 08:12:00;;;;;;;14.73;9.68;;;;;;;8.09;49.35;99048.56;5031889;28;20025;-85
2023/04/06 08:14:26;;;;;;;11.90;9.80;;;;;;;8.28;49.99;99054.59;5033182;28;20017;-85
2023/04/06 08:16:51;;;;;;;13.13;10.30;;;;;;;8.55;49.86;99063.75;5031979;28;20099;-85
2023/04/06 08:19:18;;;;;;;15.63;9.23;;;;;;;8.55;48.37;99057.38;5032065;28;20021;-85
2023/04/06 08:21:45;;;;;;;10.73;8.45;;;;;;;8.51;48.86;99051.63;5028205;28;20032;-85
2023/04/06 08:24:11;;;;;;;13.45;8.63;;;;;;;8.40;49.15;99055.88;5027974;28;20082;-85
2023/04/06 08:26:37;;;;;;;30.92;18.75;;;;;;;9.06;47.37;99039.97;5033100;28;20450;-84
2023/04/06 08:29:03;;;;;;;13.50;7.75;;;;;;;8.76;47.63;99029.56;5031632;28;20029;-85
2023/04/06 08:31:30;;;;;;;13.30;9.15;;;;;;;8.63;48.87;99053.75;5032377;28;20045;-85
2023/04/06 08:33:56;;;;;;;13.40;9.13;;;;;;;8.61;49.37;99041.28;5035868;28;20049;-85
2023/04/06 08:36:22;;;;;;;12.52;9.23;;;;;;;8.40;49.72;99040.00;5034194;28;20071;-85
2023/04/06 08:38:49;;;;;;;13.85;9.45;;;;;;;9.06;48.85;99038.00;5034262;28;20415;-85
2023/04/06 08:41:17;;;;;;;13.07;9.43;;;;;;;8.87;49.09;99038.41;5033063;28;20037;-86
2023/04/06 08:43:52;;;;;;;11.23;8.48;;;;;;;8.97;47.26;99029.66;5032964;28;20036;-86
2023/04/06 08:46:18;;;;;;;15.18;7.95;;;;;;;8.79;47.19;99033.69;5015857;28;20032;-86
2023/04/06 08:48:45;;;;;;;12.63;9.38;;;;;;;8.99;49.51;99027.38;5034888;28;20017;-85
2023/04/06 08:51:11;;;;;;;14.45;8.77;;;;;;;9.36;47.61;99035.19;5031145;28;20029;-85
2023/04/06 08:53:37;;;;;;;14.15;10.40;;;;;;;9.71;47.70;99017.38;5033157;28;20025;-84
2023/04/06 08:56:04;;;;;;;12.50;9.30;;;;;;;9.79;47.36;99022.09;5030808;28;20452;-86
2023/04/06 08:58:35;;;;;;;15.65;8.50;;;;;;;9.73;45.68;99014.25;5030852;28;20028;-85
2023/04/06 09:01:05;;;;;;;13.35;9.30;;;;;;;9.54;47.83;99021.94;5027622;28;20506;-85
2023/04/06 09:03:32;;;;;;;11.25;7.47;;;;;;;9.24;47.83;99015.56;5032545;28;20583;-85
2023/04/06 09:05:58;;;;;;;17.63;7.75;;;;;;;9.54;46.96;99009.97;5031731;28;20589;-85
2023/04/06 09:08:24;;;;;;;12.68;9.40;;;;;;;9.53;46.99;99003.56;5032580;28;20036;-85
2023/04/06 09:10:51;;;;;;;9.25;6.82;;;;;;;9.26;45.43;98988.97;5050733;28;20025;-85
2023/04/06 09:13:17;;;;;;;8.75;6.35;;;;;;;9.27;45.85;98990.59;5049524;28;20040;-86
2023/04/06 09:15:43;;;;;;;13.13;8.23;;;;;;;9.22;47.09;98979.63;5029783;28;20491;-86
2023/04/06 09:18:08;;;;;;;9.40;6.65;;;;;;;9.44;46.71;98976.88;5040246;28;20036;-87
2023/04/06 09:20:34;;;;;;;9.10;7.20;;;;;;;9.58;45.08;98980.22;5031241;28;20034;-86
2023/04/06 09:22:59;;;;;;;10.55;7.43;;;;;;;9.82;46.45;98979.50;5025462;28;20060;-87
2023/04/06 09:25:26;;;;;;;9.73;6.93;;;;;;;10.28;43.96;98983.53;5044944;28;20571;-86
2023/04/06 09:28:00;;;;;;;10.82;6.13;;;;;;;9.77;44.82;98976.09;5047472;28;20025;-86
2023/04/06 09:30:26;;;;;;;11.45;6.20;;;;;;;9.83;45.00;98980.34;5049414;28;20901;-86
2023/04/06 09:32:54;;;;;;;12.27;6.70;;;;;;;9.74;44.33;98983.22;5032390;28;20024;-86
2023/04/06 09:35:20;;;;;;;12.32;7.95;;;;;;;9.71;44.62;98974.69;5050055;28;20044;-87
2023/04/06 09:37:47;;;;;;;16.05;6.50;;;;;;;9.94;44.81;98970.38;5032421;28;20557;-87
2023/04/06 09:40:13;;;;;;;8.63;6.70;;;;;;;10.16;44.93;98965.56;5032271;28;20182;-86
2023/04/06 09:42:42;;;;;;;12.77;7.32;;;;;;;9.74;43.99;98974.00;5031766;28;20025;-87
2023/04/06 09:45:08;;;;;;;7.15;5.60;;;;;;;10.12;45.16;98970.19;5029256;28;20403;-86
2023/04/06 09:47:36;;;;;;;9.77;6.57;;;;;;;9.61;43.66;98973.94;5030993;28;20032;-87
2023/04/06 09:50:02;;;;;;;10.82;6.45;;;;;;;10.24;43.62;98972.22;5029656;28;20024;-86
2023/04/06 09:52:41;;;;;;;7.80;6.43;;;;;;;10.02;43.72;98948.28;5034007;28;20064;-86
2023/04/06 09:55:08;;;;;;;8.93;6.70;;;;;;;10.10;43.69;98959.38;5026089;28;20017;-87
2023/04/06 09:57:52;;;;;;;10.85;7.15;;;;;;;10.55;44.94;98956.94;5027245;28;20029;-85
2023/04/06 10:00:22;;;;;;;13.88;6.57;;;;;;;10.42;43.36;98955.28;5029353;28;20029;-85
2023/04/06 10:03:04;;;;;;;11.23;8.02;;;;;;;10.55;42.75;98956.13;5043712;28;20033;-84
2023/04/06 10:05:32;;;;;;;9.57;6.80;;;;;;;10.36;42.53;98977.00;5046635;28;20029;-84
2023/04/06 10:08:01;;;;;;;7.43;5.43;;;;;;;10.18;42.88;98954.03;5031310;28;20031;-85
2023/04/06 10:10:28;;;;;;;16.75;8.05;;;;;;;10.82;44.85;98963.84;5027591;28;20628;-85
2023/04/06 10:12:55;;;;;;;7.70;6.18;;;;;;;10.73;41.54;98959.53;5029238;28;20179;-83
2023/04/06 10:15:21;;;;;;;18.33;7.45;;;;;;;11.08;42.68;98961.84;5029666;28;20130;-84
2023/04/06 10:17:47;;;;;;;9.43;6.95;;;;;;;10.61;41.44;98958.34;5037340;28;20419;-85
2023/04/06 10:20:23;;;;;;;13.35;7.55;;;;;;;10.52;43.18;98950.06;5035967;28;20036;-85
2023/04/06 10:23:04;;;;;;;8.45;6.30;;;;;;;10.98;43.37;98948.34;5034456;28;20018;-84
2023/04/06 10:25:32;;;;;;;7.93;5.95;;;;;;;10.71;40.91;98942.28;5032950;28;20025;-84
2023/04/06 10:28:08;;;;;;;15.00;7.22;;;;;;;10.71;41.94;98945.88;5032908;28;20024;-85
2023/04/06 10:30:35;;;;;;;8.40;6.57;;;;;;;10.63;41.58;98927.25;5044699;28;20462;-85
2023/04/06 10:33:12;;;;;;;9.90;7.13;;;;;;;10.93;43.21;98930.63;5030071;28;20031;-85
2023/04/06 10:35:40;;;;;;;9.60;7.30;;;;;;;11.07;40.28;98929.44;5050878;28;20088;-85
2023/04/06 10:38:07;;;;;;;13.23;5.78;;;;;;;11.23;43.03;98912.75;5031876;28;20032;-84
2023/04/06 10:40:36;;;;;;;12.02;7.93;;;;;;;11.16;43.18;98932.94;5029773;28;20035;-84
2023/04/06 10:43:19;;;;;;;9.35;7.30;;;;;;;10.55;41.22;98930.97;5030147;28;20140;-85
2023/04/06 10:45:56;;;;;;;8.93;6.85;;;;;;;10.66;41.86;98918.94;5044502;28;20058;-86
2023/04/06 10:48:23;;;;;;;8.80;7.20;;;;;;;11.01;42.51;98920.47;5029064;28;20085;-85
2023/04/06 10:50:50;;;;;;;11.90;7.78;;;;;;;11.14;41.19;98926.84;5030292;28;20488;-85
2023/04/06 10:53:27;;;;;;;9.90;7.65;;;;;;;11.31;41.91;98908.19;5026124;28;20025;-84
2023/04/06 10:55:56;;;;;;;12.02;6.57;;;;;;;11.51;40.52;98909.97;5044089;28;20512;-84
2023/04/06 10:58:27;;;;;;;9.90;6.70;;;;;;;11.80;40.48;98901.56;5004636;28;20507;-85
2023/04/06 11:00:53;;;;;;;;;;;;;;;11.55;40.49;98912.06;5032915;28;20041;-85
2023/04/06 11:03:19;;;;;;;9.15;6.40;;;;;;;11.00;40.54;98904.84;5029749;28;20352;-85
2023/04/06 11:05:45;;;;;;;8.93;6.95;;;;;;;11.06;40.42;98909.03;5032361;28;20033;-86
2023/04/06 11:08:29;;;;;;;17.33;7.53;;;;;;;11.17;39.71;98914.16;5037017;28;20028;-87
2023/04/06 11:11:26;;;;;;;9.82;6.72;;;;;;;11.28;38.81;98909.69;5029455;28;20056;-87
2023/04/06 11:13:55;;;;;;;8.80;6.00;;;;;;;11.30;39.51;98907.34;5029989;28;20056;-86
2023/04/06 11:16:30;;;;;;;12.30;6.55;;;;;;;11.40;39.77;98894.03;5032045;28;20025;-86
2023/04/06 11:19:05;;;;;;;10.10;7.07;;;;;;;11.26;40.23;98889.63;5032516;28;20155;-85
2023/04/06 11:21:48;;;;;;;12.00;7.22;;;;;;;11.72;40.02;98886.53;5033291;28;20025;-84
2023/04/06 11:24:22;;;;;;;10.20;6.90;;;;;;;11.64;38.68;98893.13;5025254;28;20425;-84